Huslia Airport Huslia US
ICAO: PAHL
IATA:
Category: Medium
Scheduled Services:

Elevation: 220 ft
TransAlt. 18000 ft.

Airport Communications:
AWOS 3:135.75
ANCHORAGE CNTR:127
CTAF:122.8
FAIRBANKS RDO:122.4

PAHL Zoom In..

If you have problems with the map follow the link
https://www.worldairports.se/pages/airport.php?
ICAO=PAHL

Runways:

(A) RW 03 length 4000 ft width 75 ft
---- / hdg 32

(B) RW 21 length 4000 ft width 75 ft
---- / hdg 212

Location; PAHL
Day. 22 / Time. 17.56 Zulu
* Altimeter: 29.57
* Temperature: -02° c. -28.4°f.
* Wind from: 060° Speed 04 kn.
Dewpoint: -03° c.
Visibility: 10 Statute Miles.
Clouds: Clear (automated report).

PAHL 221756Z AUTO 06004KT 10SM CLR M02/M03 A2957 RMK AO2 SLP022 T10221033 11006 21028 52005 FZRANO


Wind From 060°
Speed 04 kn.

 
 
jpsmedia.com for Web Design worldairports.se 2018   terms of use